sensor_id;sensor_type;location;lat;lon;timestamp;P1;durP1;ratioP1;P2;durP2;ratioP2
45728;SDS011;31439;53.512;10.206;2023-04-01T00:00:50;9.80;;;3.90;;
45728;SDS011;31439;53.512;10.206;2023-04-01T00:03:20;12.77;;;4.95;;
45728;SDS011;31439;53.512;10.206;2023-04-01T00:05:47;7.78;;;3.97;;
45728;SDS011;31439;53.512;10.206;2023-04-01T00:08:12;7.47;;;3.97;;
45728;SDS011;31439;53.512;10.206;2023-04-01T00:10:39;9.55;;;4.72;;
45728;SDS011;31439;53.512;10.206;2023-04-01T00:13:05;8.23;;;4.40;;
45728;SDS011;31439;53.512;10.206;2023-04-01T00:15:31;9.40;;;3.88;;
45728;SDS011;31439;53.512;10.206;2023-04-01T00:17:56;9.60;;;3.95;;
45728;SDS011;31439;53.512;10.206;2023-04-01T00:20:22;10.77;;;4.30;;
45728;SDS011;31439;53.512;10.206;2023-04-01T00:22:48;7.88;;;3.88;;
45728;SDS011;31439;53.512;10.206;2023-04-01T00:25:13;8.20;;;4.20;;
45728;SDS011;31439;53.512;10.206;2023-04-01T00:27:39;7.65;;;4.32;;
45728;SDS011;31439;53.512;10.206;2023-04-01T00:30:06;9.07;;;4.10;;
45728;SDS011;31439;53.512;10.206;2023-04-01T00:32:33;8.93;;;3.65;;
45728;SDS011;31439;53.512;10.206;2023-04-01T00:34:59;9.65;;;4.43;;
45728;SDS011;31439;53.512;10.206;2023-04-01T00:37:26;8.23;;;3.95;;
45728;SDS011;31439;53.512;10.206;2023-04-01T00:39:52;8.30;;;4.10;;
45728;SDS011;31439;53.512;10.206;2023-04-01T00:42:18;8.70;;;3.90;;
45728;SDS011;31439;53.512;10.206;2023-04-01T00:44:54;7.20;;;4.07;;
45728;SDS011;31439;53.512;10.206;2023-04-01T00:47:20;7.70;;;4.18;;
45728;SDS011;31439;53.512;10.206;2023-04-01T00:49:50;10.32;;;4.15;;
45728;SDS011;31439;53.512;10.206;2023-04-01T00:52:19;10.15;;;4.20;;
45728;SDS011;31439;53.512;10.206;2023-04-01T00:54:47;9.93;;;4.07;;
45728;SDS011;31439;53.512;10.206;2023-04-01T00:57:19;10.73;;;3.95;;
45728;SDS011;31439;53.512;10.206;2023-04-01T00:59:55;7.80;;;3.90;;
45728;SDS011;31439;53.512;10.206;2023-04-01T01:02:24;7.20;;;3.83;;
45728;SDS011;31439;53.512;10.206;2023-04-01T01:04:50;9.63;;;3.97;;
45728;SDS011;31439;53.512;10.206;2023-04-01T01:15:16;10.35;;;4.50;;
45728;SDS011;31439;53.512;10.206;2023-04-01T01:37:29;9.98;;;4.40;;
45728;SDS011;31439;53.512;10.206;2023-04-01T01:39:58;9.93;;;4.35;;
45728;SDS011;31439;53.512;10.206;2023-04-01T01:42:27;8.02;;;4.18;;
45728;SDS011;31439;53.512;10.206;2023-04-01T01:44:56;9.30;;;3.75;;
45728;SDS011;31439;53.512;10.206;2023-04-01T01:47:24;8.65;;;3.92;;
45728;SDS011;31439;53.512;10.206;2023-04-01T01:49:51;9.38;;;4.00;;
45728;SDS011;31439;53.512;10.206;2023-04-01T01:52:17;8.15;;;4.25;;
45728;SDS011;31439;53.512;10.206;2023-04-01T01:54:47;8.02;;;4.13;;
45728;SDS011;31439;53.512;10.206;2023-04-01T01:57:14;10.50;;;4.70;;
45728;SDS011;31439;53.512;10.206;2023-04-01T01:59:42;10.50;;;4.30;;
45728;SDS011;31439;53.512;10.206;2023-04-01T02:02:09;9.38;;;3.90;;
45728;SDS011;31439;53.512;10.206;2023-04-01T02:04:37;7.40;;;4.00;;
45728;SDS011;31439;53.512;10.206;2023-04-01T02:07:07;10.02;;;4.75;;
45728;SDS011;31439;53.512;10.206;2023-04-01T02:09:40;9.38;;;4.30;;
45728;SDS011;31439;53.512;10.206;2023-04-01T02:12:07;8.65;;;4.07;;
45728;SDS011;31439;53.512;10.206;2023-04-01T02:17:07;6.20;;;3.97;;
45728;SDS011;31439;53.512;10.206;2023-04-01T02:19:40;7.78;;;4.07;;
45728;SDS011;31439;53.512;10.206;2023-04-01T02:22:16;8.75;;;4.10;;
45728;SDS011;31439;53.512;10.206;2023-04-01T02:24:46;9.60;;;4.13;;
45728;SDS011;31439;53.512;10.206;2023-04-01T02:27:14;6.60;;;3.85;;
45728;SDS011;31439;53.512;10.206;2023-04-01T02:29:40;6.57;;;4.05;;
45728;SDS011;31439;53.512;10.206;2023-04-01T02:32:05;10.57;;;4.18;;
45728;SDS011;31439;53.512;10.206;2023-04-01T02:34:32;8.05;;;3.92;;
45728;SDS011;31439;53.512;10.206;2023-04-01T02:36:58;8.20;;;3.97;;
45728;SDS011;31439;53.512;10.206;2023-04-01T02:39:24;8.95;;;4.10;;
45728;SDS011;31439;53.512;10.206;2023-04-01T02:41:53;9.30;;;4.10;;
45728;SDS011;31439;53.512;10.206;2023-04-01T02:44:18;10.65;;;4.20;;
45728;SDS011;31439;53.512;10.206;2023-04-01T02:46:44;6.15;;;3.50;;
45728;SDS011;31439;53.512;10.206;2023-04-01T02:49:10;6.43;;;3.72;;
45728;SDS011;31439;53.512;10.206;2023-04-01T02:51:36;9.52;;;3.85;;
45728;SDS011;31439;53.512;10.206;2023-04-01T02:54:02;8.05;;;3.90;;
45728;SDS011;31439;53.512;10.206;2023-04-01T02:56:28;12.85;;;4.18;;
45728;SDS011;31439;53.512;10.206;2023-04-01T02:58:53;7.65;;;4.00;;
45728;SDS011;31439;53.512;10.206;2023-04-01T03:01:19;10.82;;;4.57;;
45728;SDS011;31439;53.512;10.206;2023-04-01T03:03:45;7.38;;;4.00;;
45728;SDS011;31439;53.512;10.206;2023-04-01T03:06:12;9.57;;;4.53;;
45728;SDS011;31439;53.512;10.206;2023-04-01T03:08:39;9.02;;;4.15;;
45728;SDS011;31439;53.512;10.206;2023-04-01T03:11:05;9.15;;;4.90;;
45728;SDS011;31439;53.512;10.206;2023-04-01T03:13:31;9.60;;;4.40;;
45728;SDS011;31439;53.512;10.206;2023-04-01T03:15:57;8.23;;;4.80;;
45728;SDS011;31439;53.512;10.206;2023-04-01T03:18:23;9.88;;;4.70;;
45728;SDS011;31439;53.512;10.206;2023-04-01T03:20:48;10.25;;;4.78;;
45728;SDS011;31439;53.512;10.206;2023-04-01T03:23:15;15.18;;;5.40;;
45728;SDS011;31439;53.512;10.206;2023-04-01T03:25:42;7.32;;;4.72;;
45728;SDS011;31439;53.512;10.206;2023-04-01T03:28:08;9.30;;;5.07;;
45728;SDS011;31439;53.512;10.206;2023-04-01T03:30:34;9.30;;;5.30;;
45728;SDS011;31439;53.512;10.206;2023-04-01T03:33:00;8.40;;;5.05;;
45728;SDS011;31439;53.512;10.206;2023-04-01T03:35:26;11.65;;;5.07;;
45728;SDS011;31439;53.512;10.206;2023-04-01T03:37:53;11.70;;;6.10;;
45728;SDS011;31439;53.512;10.206;2023-04-01T03:40:19;11.18;;;5.65;;
45728;SDS011;31439;53.512;10.206;2023-04-01T03:42:45;8.82;;;5.50;;
45728;SDS011;31439;53.512;10.206;2023-04-01T03:45:11;7.97;;;5.40;;
45728;SDS011;31439;53.512;10.206;2023-04-01T03:47:38;9.75;;;5.90;;
45728;SDS011;31439;53.512;10.206;2023-04-01T03:50:04;10.65;;;6.05;;
45728;SDS011;31439;53.512;10.206;2023-04-01T03:52:33;10.93;;;6.22;;
45728;SDS011;31439;53.512;10.206;2023-04-01T03:55:00;8.25;;;5.20;;
45728;SDS011;31439;53.512;10.206;2023-04-01T03:57:26;10.90;;;5.63;;
45728;SDS011;31439;53.512;10.206;2023-04-01T03:59:52;8.90;;;5.50;;
45728;SDS011;31439;53.512;10.206;2023-04-01T04:02:18;10.10;;;5.93;;
45728;SDS011;31439;53.512;10.206;2023-04-01T04:04:44;9.02;;;5.85;;
45728;SDS011;31439;53.512;10.206;2023-04-01T04:07:11;9.48;;;6.07;;
45728;SDS011;31439;53.512;10.206;2023-04-01T04:09:37;7.90;;;5.63;;
45728;SDS011;31439;53.512;10.206;2023-04-01T04:12:03;8.80;;;5.47;;
45728;SDS011;31439;53.512;10.206;2023-04-01T04:14:30;9.00;;;5.30;;
45728;SDS011;31439;53.512;10.206;2023-04-01T04:16:56;8.18;;;5.63;;
45728;SDS011;31439;53.512;10.206;2023-04-01T04:19:22;9.73;;;5.82;;
45728;SDS011;31439;53.512;10.206;2023-04-01T04:21:47;10.48;;;5.40;;
45728;SDS011;31439;53.512;10.206;2023-04-01T04:24:13;9.65;;;5.78;;
45728;SDS011;31439;53.512;10.206;2023-04-01T04:26:39;8.48;;;5.57;;
45728;SDS011;31439;53.512;10.206;2023-04-01T04:29:04;7.00;;;5.20;;
45728;SDS011;31439;53.512;10.206;2023-04-01T04:31:30;6.43;;;4.70;;
45728;SDS011;31439;53.512;10.206;2023-04-01T04:33:56;7.45;;;4.95;;
45728;SDS011;31439;53.512;10.206;2023-04-01T04:36:24;8.57;;;5.05;;
45728;SDS011;31439;53.512;10.206;2023-04-01T04:38:50;7.47;;;5.03;;
45728;SDS011;31439;53.512;10.206;2023-04-01T04:41:16;8.10;;;5.78;;
45728;SDS011;31439;53.512;10.206;2023-04-01T04:43:48;8.55;;;4.80;;
45728;SDS011;31439;53.512;10.206;2023-04-01T04:46:19;7.28;;;4.78;;
45728;SDS011;31439;53.512;10.206;2023-04-01T04:48:45;8.57;;;4.88;;
45728;SDS011;31439;53.512;10.206;2023-04-01T04:51:17;7.32;;;5.20;;
45728;SDS011;31439;53.512;10.206;2023-04-01T04:53:44;8.18;;;5.40;;
45728;SDS011;31439;53.512;10.206;2023-04-01T04:56:10;8.18;;;4.70;;
45728;SDS011;31439;53.512;10.206;2023-04-01T04:58:37;8.30;;;4.82;;
45728;SDS011;31439;53.512;10.206;2023-04-01T05:01:10;9.65;;;5.20;;
45728;SDS011;31439;53.512;10.206;2023-04-01T05:03:39;9.27;;;5.43;;
45728;SDS011;31439;53.512;10.206;2023-04-01T05:06:05;7.88;;;4.90;;
45728;SDS011;31439;53.512;10.206;2023-04-01T05:08:32;6.65;;;5.07;;
45728;SDS011;31439;53.512;10.206;2023-04-01T05:10:59;6.78;;;5.15;;
45728;SDS011;31439;53.512;10.206;2023-04-01T05:13:25;8.82;;;4.80;;
45728;SDS011;31439;53.512;10.206;2023-04-01T05:15:51;8.18;;;5.30;;
45728;SDS011;31439;53.512;10.206;2023-04-01T05:18:16;8.45;;;5.30;;
45728;SDS011;31439;53.512;10.206;2023-04-01T05:20:49;7.15;;;4.70;;
45728;SDS011;31439;53.512;10.206;2023-04-01T05:23:16;7.20;;;4.77;;
45728;SDS011;31439;53.512;10.206;2023-04-01T05:25:42;10.07;;;5.65;;
45728;SDS011;31439;53.512;10.206;2023-04-01T05:28:09;7.25;;;5.13;;
45728;SDS011;31439;53.512;10.206;2023-04-01T05:30:35;8.70;;;4.95;;
45728;SDS011;31439;53.512;10.206;2023-04-01T05:33:01;9.68;;;5.32;;
45728;SDS011;31439;53.512;10.206;2023-04-01T05:35:27;8.43;;;4.85;;
45728;SDS011;31439;53.512;10.206;2023-04-01T05:37:53;7.93;;;5.10;;
45728;SDS011;31439;53.512;10.206;2023-04-01T05:40:19;7.30;;;5.45;;
45728;SDS011;31439;53.512;10.206;2023-04-01T05:42:45;10.63;;;6.25;;
45728;SDS011;31439;53.512;10.206;2023-04-01T05:45:11;6.38;;;3.55;;
45728;SDS011;31439;53.512;10.206;2023-04-01T05:47:40;2.97;;;2.25;;
45728;SDS011;31439;53.512;10.206;2023-04-01T05:50:14;2.60;;;1.67;;
45728;SDS011;31439;53.512;10.206;2023-04-01T05:52:44;2.10;;;1.30;;
45728;SDS011;31439;53.512;10.206;2023-04-01T05:55:09;2.00;;;1.20;;
45728;SDS011;31439;53.512;10.206;2023-04-01T05:57:35;2.80;;;1.40;;
45728;SDS011;31439;53.512;10.206;2023-04-01T06:00:01;0.70;;;0.70;;
45728;SDS011;31439;53.512;10.206;2023-04-01T06:02:29;3.70;;;2.17;;
45728;SDS011;31439;53.512;10.206;2023-04-01T06:05:03;2.03;;;1.35;;
45728;SDS011;31439;53.512;10.206;2023-04-01T06:07:41;0.88;;;0.80;;
45728;SDS011;31439;53.512;10.206;2023-04-01T06:10:11;2.13;;;1.30;;
45728;SDS011;31439;53.512;10.206;2023-04-01T06:12:45;1.85;;;1.00;;
45728;SDS011;31439;53.512;10.206;2023-04-01T06:18:18;1.80;;;1.10;;
45728;SDS011;31439;53.512;10.206;2023-04-01T06:29:49;1.95;;;1.20;;
45728;SDS011;31439;53.512;10.206;2023-04-01T06:32:33;2.40;;;1.30;;
45728;SDS011;31439;53.512;10.206;2023-04-01T06:43:13;2.80;;;1.70;;
45728;SDS011;31439;53.512;10.206;2023-04-01T06:54:38;1.73;;;1.23;;
45728;SDS011;31439;53.512;10.206;2023-04-01T06:57:21;2.40;;;1.67;;
45728;SDS011;31439;53.512;10.206;2023-04-01T06:59:55;1.58;;;1.30;;
45728;SDS011;31439;53.512;10.206;2023-04-01T07:02:39;1.77;;;1.20;;
45728;SDS011;31439;53.512;10.206;2023-04-01T07:05:11;1.23;;;0.93;;
45728;SDS011;31439;53.512;10.206;2023-04-01T07:07:40;2.05;;;1.00;;
45728;SDS011;31439;53.512;10.206;2023-04-01T07:10:19;2.03;;;0.95;;
45728;SDS011;31439;53.512;10.206;2023-04-01T07:13:06;1.45;;;1.00;;
45728;SDS011;31439;53.512;10.206;2023-04-01T07:15:43;1.70;;;1.17;;
45728;SDS011;31439;53.512;10.206;2023-04-01T07:18:24;1.27;;;1.00;;
45728;SDS011;31439;53.512;10.206;2023-04-01T07:20:57;3.63;;;1.25;;
45728;SDS011;31439;53.512;10.206;2023-04-01T07:23:26;1.38;;;1.10;;
45728;SDS011;31439;53.512;10.206;2023-04-01T07:25:58;1.50;;;1.02;;
45728;SDS011;31439;53.512;10.206;2023-04-01T07:28:32;1.40;;;1.15;;
45728;SDS011;31439;53.512;10.206;2023-04-01T07:33:38;1.38;;;1.00;;
45728;SDS011;31439;53.512;10.206;2023-04-01T07:36:17;2.00;;;1.40;;
45728;SDS011;31439;53.512;10.206;2023-04-01T07:41:32;0.77;;;0.70;;
45728;SDS011;31439;53.512;10.206;2023-04-01T08:04:00;1.40;;;0.80;;
45728;SDS011;31439;53.512;10.206;2023-04-01T08:09:41;1.75;;;0.80;;
45728;SDS011;31439;53.512;10.206;2023-04-01T08:22:57;0.93;;;0.77;;
45728;SDS011;31439;53.512;10.206;2023-04-01T08:25:29;0.60;;;0.60;;
45728;SDS011;31439;53.512;10.206;2023-04-01T08:30:57;1.25;;;0.70;;
45728;SDS011;31439;53.512;10.206;2023-04-01T08:33:24;0.95;;;0.80;;
45728;SDS011;31439;53.512;10.206;2023-04-01T08:38:57;1.30;;;1.00;;
45728;SDS011;31439;53.512;10.206;2023-04-01T08:41:40;1.55;;;1.00;;
45728;SDS011;31439;53.512;10.206;2023-04-01T08:53:34;1.58;;;0.80;;
45728;SDS011;31439;53.512;10.206;2023-04-01T08:56:00;1.10;;;0.90;;
45728;SDS011;31439;53.512;10.206;2023-04-01T09:01:26;2.15;;;0.88;;
45728;SDS011;31439;53.512;10.206;2023-04-01T09:06:55;0.95;;;0.80;;
45728;SDS011;31439;53.512;10.206;2023-04-01T09:28:54;1.10;;;0.70;;
45728;SDS011;31439;53.512;10.206;2023-04-01T09:35:20;1.08;;;0.85;;
45728;SDS011;31439;53.512;10.206;2023-04-01T09:41:07;1.85;;;1.00;;
45728;SDS011;31439;53.512;10.206;2023-04-01T09:57:53;1.35;;;0.77;;
45728;SDS011;31439;53.512;10.206;2023-04-01T10:00:20;1.00;;;0.90;;
45728;SDS011;31439;53.512;10.206;2023-04-01T10:08:49;0.70;;;0.60;;
45728;SDS011;31439;53.512;10.206;2023-04-01T10:11:40;1.30;;;0.80;;
45728;SDS011;31439;53.512;10.206;2023-04-01T10:14:22;2.15;;;0.85;;
45728;SDS011;31439;53.512;10.206;2023-04-01T10:34:19;1.35;;;0.85;;
45728;SDS011;31439;53.512;10.206;2023-04-01T10:37:07;1.35;;;0.93;;
45728;SDS011;31439;53.512;10.206;2023-04-01T10:42:54;1.17;;;0.80;;
45728;SDS011;31439;53.512;10.206;2023-04-01T11:10:57;1.15;;;0.90;;
45728;SDS011;31439;53.512;10.206;2023-04-01T11:13:47;1.48;;;0.93;;
45728;SDS011;31439;53.512;10.206;2023-04-01T11:30:16;1.70;;;1.10;;
45728;SDS011;31439;53.512;10.206;2023-04-01T11:38:53;5.15;;;1.50;;
45728;SDS011;31439;53.512;10.206;2023-04-01T11:53:29;3.63;;;2.22;;
45728;SDS011;31439;53.512;10.206;2023-04-01T12:07:17;2.90;;;2.00;;
45728;SDS011;31439;53.512;10.206;2023-04-01T12:36:11;3.90;;;2.05;;
45728;SDS011;31439;53.512;10.206;2023-04-01T13:26:56;6.22;;;2.97;;
45728;SDS011;31439;53.512;10.206;2023-04-01T13:43:41;6.55;;;3.40;;
45728;SDS011;31439;53.512;10.206;2023-04-01T13:57:24;4.40;;;2.55;;
45728;SDS011;31439;53.512;10.206;2023-04-01T14:08:54;6.78;;;2.83;;
45728;SDS011;31439;53.512;10.206;2023-04-01T14:15:07;4.18;;;2.55;;
45728;SDS011;31439;53.512;10.206;2023-04-01T14:30:19;5.28;;;2.65;;
45728;SDS011;31439;53.512;10.206;2023-04-01T14:33:01;4.53;;;3.05;;
45728;SDS011;31439;53.512;10.206;2023-04-01T14:48:45;7.28;;;3.38;;
45728;SDS011;31439;53.512;10.206;2023-04-01T14:54:53;8.02;;;3.95;;
45728;SDS011;31439;53.512;10.206;2023-04-01T15:22:43;7.93;;;3.40;;
45728;SDS011;31439;53.512;10.206;2023-04-01T15:29:22;8.07;;;3.63;;
45728;SDS011;31439;53.512;10.206;2023-04-01T15:40:49;5.68;;;3.05;;
45728;SDS011;31439;53.512;10.206;2023-04-01T16:46:30;9.52;;;4.32;;
45728;SDS011;31439;53.512;10.206;2023-04-01T17:05:11;9.95;;;4.57;;
45728;SDS011;31439;53.512;10.206;2023-04-01T17:11:18;11.55;;;4.95;;
45728;SDS011;31439;53.512;10.206;2023-04-01T17:44:10;10.98;;;3.70;;
45728;SDS011;31439;53.512;10.206;2023-04-01T18:24:45;7.28;;;3.17;;
45728;SDS011;31439;53.512;10.206;2023-04-01T18:27:22;5.28;;;3.10;;
45728;SDS011;31439;53.512;10.206;2023-04-01T18:30:28;9.77;;;3.90;;
45728;SDS011;31439;53.512;10.206;2023-04-01T18:33:04;9.93;;;4.80;;
45728;SDS011;31439;53.512;10.206;2023-04-01T18:35:53;9.18;;;3.70;;
45728;SDS011;31439;53.512;10.206;2023-04-01T18:38:48;8.88;;;3.17;;
45728;SDS011;31439;53.512;10.206;2023-04-01T18:57:13;7.97;;;2.97;;
45728;SDS011;31439;53.512;10.206;2023-04-01T18:59:45;6.28;;;3.08;;
45728;SDS011;31439;53.512;10.206;2023-04-01T19:02:31;6.93;;;2.97;;
45728;SDS011;31439;53.512;10.206;2023-04-01T19:11:03;6.78;;;2.88;;
45728;SDS011;31439;53.512;10.206;2023-04-01T19:27:44;5.97;;;2.67;;
45728;SDS011;31439;53.512;10.206;2023-04-01T19:35:26;8.65;;;2.63;;
45728;SDS011;31439;53.512;10.206;2023-04-01T19:38:04;8.38;;;2.70;;
45728;SDS011;31439;53.512;10.206;2023-04-01T19:40:38;6.35;;;2.40;;
45728;SDS011;31439;53.512;10.206;2023-04-01T19:46:17;3.63;;;2.20;;
45728;SDS011;31439;53.512;10.206;2023-04-01T20:00:47;5.18;;;2.30;;
45728;SDS011;31439;53.512;10.206;2023-04-01T20:03:29;6.55;;;2.60;;
45728;SDS011;31439;53.512;10.206;2023-04-01T20:06:26;7.20;;;2.45;;
45728;SDS011;31439;53.512;10.206;2023-04-01T20:17:07;6.65;;;2.75;;
45728;SDS011;31439;53.512;10.206;2023-04-01T20:22:05;9.70;;;3.67;;
45728;SDS011;31439;53.512;10.206;2023-04-01T20:24:50;6.85;;;2.70;;
45728;SDS011;31439;53.512;10.206;2023-04-01T20:27:22;9.55;;;3.50;;
45728;SDS011;31439;53.512;10.206;2023-04-01T20:41:13;6.93;;;2.72;;
45728;SDS011;31439;53.512;10.206;2023-04-01T20:49:57;4.80;;;2.40;;
45728;SDS011;31439;53.512;10.206;2023-04-01T20:52:40;6.63;;;2.42;;
45728;SDS011;31439;53.512;10.206;2023-04-01T20:55:27;6.32;;;2.90;;
45728;SDS011;31439;53.512;10.206;2023-04-01T21:03:41;6.15;;;2.65;;
45728;SDS011;31439;53.512;10.206;2023-04-01T21:34:04;4.53;;;2.00;;
45728;SDS011;31439;53.512;10.206;2023-04-01T21:42:20;6.47;;;2.20;;
45728;SDS011;31439;53.512;10.206;2023-04-01T21:44:52;6.38;;;2.03;;
45728;SDS011;31439;53.512;10.206;2023-04-01T22:04:37;5.32;;;2.00;;
45728;SDS011;31439;53.512;10.206;2023-04-01T22:07:17;10.43;;;3.08;;
45728;SDS011;31439;53.512;10.206;2023-04-01T22:20:50;4.57;;;2.10;;
45728;SDS011;31439;53.512;10.206;2023-04-01T22:31:28;5.45;;;1.75;;
45728;SDS011;31439;53.512;10.206;2023-04-01T22:34:07;3.63;;;1.70;;
45728;SDS011;31439;53.512;10.206;2023-04-01T22:36:53;5.60;;;1.83;;
45728;SDS011;31439;53.512;10.206;2023-04-01T22:50:39;4.13;;;1.95;;
45728;SDS011;31439;53.512;10.206;2023-04-01T22:55:32;7.40;;;1.95;;
45728;SDS011;31439;53.512;10.206;2023-04-01T22:58:03;4.72;;;2.00;;
45728;SDS011;31439;53.512;10.206;2023-04-01T23:00:35;4.35;;;1.60;;
45728;SDS011;31439;53.512;10.206;2023-04-01T23:03:14;6.35;;;2.00;;
45728;SDS011;31439;53.512;10.206;2023-04-01T23:05:51;6.70;;;1.90;;
45728;SDS011;31439;53.512;10.206;2023-04-01T23:13:49;8.13;;;2.05;;
45728;SDS011;31439;53.512;10.206;2023-04-01T23:16:38;5.47;;;1.80;;
45728;SDS011;31439;53.512;10.206;2023-04-01T23:24:48;7.22;;;2.08;;
45728;SDS011;31439;53.512;10.206;2023-04-01T23:30:00;6.38;;;2.17;;
45728;SDS011;31439;53.512;10.206;2023-04-01T23:32:26;7.35;;;2.17;;
45728;SDS011;31439;53.512;10.206;2023-04-01T23:34:56;8.32;;;1.88;;
45728;SDS011;31439;53.512;10.206;2023-04-01T23:37:24;7.65;;;1.90;;
45728;SDS011;31439;53.512;10.206;2023-04-01T23:39:53;8.63;;;1.88;;
45728;SDS011;31439;53.512;10.206;2023-04-01T23:42:28;9.05;;;2.40;;
45728;SDS011;31439;53.512;10.206;2023-04-01T23:44:56;4.68;;;1.83;;
45728;SDS011;31439;53.512;10.206;2023-04-01T23:47:33;7.80;;;2.92;;
45728;SDS011;31439;53.512;10.206;2023-04-01T23:52:44;6.80;;;1.75;;
45728;SDS011;31439;53.512;10.206;2023-04-01T23:55:22;7.30;;;1.92;;
